Whitleys Peak, Santa Catalina Island Weather observations

Data are for 10 minute period ending at time listed.
 Day   Time   Solar   Ave.   Ave.  Ave.  Vector    Max.   Stn.    Total
  of    of     Rad.   Air    Rel.  Wind   Wind     Wind   Baro.  Precip.
Year   Day            Temp.  Hum.  Speed  Dir.     Gust   Pres.         
2014   (PST)   W/m2    F      %     mph   deg.      mph    mb.     in.  
------------------------------------------------------------------------
 203   22:40    0.0    62   86.7    16    237.6    20.3    999.0   0.00  
 203   22:50    0.0    63   83.4    14    235.4    19.1    999.0   0.00  
 203   23:00    0.0    63   85.6    14    242.1    17.9    999.0   0.00  
 203   23:10    0.0    63   83.5    14    244.4    18.5    999.0   0.00  
 203   23:20    0.0    62   86.9    14    241.0    18.5    999.0   0.00  
 203   23:30    0.0    62   88.0    14    239.1    17.3    999.0   0.00  
 203   23:40    0.0    64   81.5    13    239.2    17.9    999.0   0.00  
 203   23:50    0.0    64   81.7    13    245.4    18.5    999.0   0.00  
 204    0:00    0.0    63   84.0    13    247.0    17.3    999.0   0.00  
 204    0:10    0.0    62   86.8    13    254.5    15.5    999.0   0.00  
 204    0:20    0.0    62   87.3    12    255.9    16.7    999.0   0.00  
 204    0:30    0.0    68   60.6    14    282.4    20.3    999.0   0.00  
 204    0:40    0.0    73   41.5    14    299.0    22.1    999.0   0.00  
 204    0:50    0.0    73   40.9    12    300.2    19.7    999.0   0.00  
 204    1:00    0.0    71   50.1     6    307.7    14.3    999.0   0.00  
 204    1:10    0.0    68   57.8     4    272.5     7.8    999.0   0.00  
 204    1:20    0.0    70   50.3     3    288.5     5.4    999.0   0.00  
 204    1:30    0.0    67   64.5     9    238.7    16.1    999.0   0.00  
 204    1:40    0.0    60   91.7    14    229.1    17.9    999.0   0.00  
 204    1:50    0.0    60   94.1    14    219.9    16.1    999.0   0.00  
 204    2:00    0.0    62   90.1    14    224.4    17.9    999.0   0.00  
 204    2:10    0.0    64   80.1    14    230.4    16.7    999.0   0.00  
 204    2:20    0.0    64   80.2    12    226.0    16.1    999.0   0.00  
 204    2:30    0.0    64   80.3    12    226.8    16.1    999.0   0.00  
 204    2:40    0.0    66   68.0    11    228.9    14.3    999.0   0.00  
 204    2:50    0.0    66   70.4    12    232.6    14.9    999.0   0.00  
 204    3:00    0.0    68   63.9    10    235.1    13.1    999.0   0.00  
 204    3:10    0.0    67   65.8    10    219.3    13.1    999.0   0.00  
 204    3:20    0.0    67   69.8     8    205.7    11.9    999.0   0.00  
 204    3:30    0.0    67   65.6     5    204.0     6.6    999.0   0.00  
 204    3:40    0.0    66   70.8     6    221.8    10.2    999.0   0.00  
 204    3:50    0.0    66   71.3     7    231.7    11.3    999.0   0.00  
 204    4:00    0.0    68   60.9     4    218.7     9.0    999.0   0.00  
 204    4:10    0.0    67   64.2     7    236.7     9.6    999.0   0.00  
 204    4:20    0.0    67   66.3     8    247.8    10.2    999.0   0.00  
 204    4:30    0.0    68   60.5     9    250.7    11.3    999.0   0.00  
 204    4:40    0.0    69   56.8     6    252.0     9.0    999.0   0.00  
 204    4:50    0.0    68   58.1     6    243.9     9.0    999.0   0.00  
 204    5:00    0.0    68   62.6     9    227.3    11.3    999.0   0.00  
 204    5:10    6.0    68   57.8     6    232.9     9.6    999.0   0.00  
 204    5:20    6.0    70   53.3     7    246.3     9.0    999.0   0.00  
 204    5:30   14.0    69   56.1     9    236.9    11.3    999.0   0.00  
 204    5:40   28.0    69   55.4     7    242.2     9.6    999.0   0.00  
 204    5:50   48.0    70   55.6     4    244.4     6.0    999.0   0.00  
 204    6:00   78.0    68   61.7     4    223.6     4.8    999.0   0.00  
 204    6:10  108.0    70   57.0     3    251.0     4.8    999.0   0.00  
 204    6:20  133.0    73   54.6     2    149.7     4.2    999.0   0.00  
 204    6:30  160.0    74   49.0     2    338.6     3.6    999.0   0.00  
 204    6:40  188.0    75   51.6     2     31.5     4.2    999.0   0.00  
 204    6:50  217.0    76   48.9     3     59.1     6.0    999.0   0.00  
 204    7:00  247.0    75   46.4     4    322.1     6.6    999.0   0.00  
 204    7:10  277.0    76   43.0     3    326.5     6.0    999.0   0.00  
 204    7:20  307.0    78   49.2     4     80.5     6.6    999.0   0.00  
 204    7:30  337.0    73   69.6     4    103.9     6.6    999.0   0.00  
 204    7:40  367.0    75   60.5     3     17.4     6.0    999.0   0.00  
 204    7:50  397.0    78   46.9     4    347.4     6.0    999.0   0.00  
 204    8:00  426.0    78   56.7     3     59.1     6.0    999.0   0.00  
 204    8:10  455.0    77   61.8     4      2.4     6.6    999.0   0.00  
 204    8:20  483.0    74   70.3     5     99.7    10.2    999.0   0.00  
 204    8:30  510.0    75   69.0     4     59.7     7.2    999.0   0.00  
 204    8:40  538.0    74   69.0     3      1.9     7.2    999.0   0.00  
 204    8:50  564.0    78   64.1     4     50.9     6.6    999.0   0.00  
 204    9:00  590.0    76   68.1     4     98.9     7.2    999.0   0.00  
 204    9:10  615.0    78   63.3     3     41.5     6.0    999.0   0.00  
 204    9:20  641.0    82   56.2     3    225.2     7.2    999.0   0.00  
 204    9:30  664.0    82   56.1     3     37.0     6.6    999.0   0.00  
 204    9:40  687.0    82   57.4     4     40.2     5.4    999.0   0.00  
 204    9:50  708.0    78   63.2     6    104.7     8.4    999.0   0.00  
 204   10:00  728.0    80   60.9     4     97.1     6.0    999.0   0.00  
 204   10:10  749.0    81   58.2     4     51.5     6.6    999.0   0.00  
 204   10:20  768.0    81   58.7     5     46.3     7.2    999.0   0.00  
 204   10:30  785.0    79   61.6     4     16.0     7.2    999.0   0.00  
 204   10:40  800.0    79   61.7     5     23.4     7.8    999.0   0.00  
 204   10:50  815.0    79   61.7     4     22.7     6.6    999.0   0.00  
 204   11:00  827.0    81   57.9     4     29.4     7.8    999.0   0.00  
 204   11:10  836.0    82   56.7     5     69.8     7.2    999.0   0.00  
 204   11:20  846.0    81   58.5     5     51.2     7.2    999.0   0.00  
 204   11:30  854.0    82   56.2     4     13.2     7.2    999.0   0.00  
 204   11:40  861.0    82   56.8     4     77.4     7.2    999.0   0.00  
 204   11:50  865.0    82   55.9     4     16.1     9.0    999.0   0.00  
 204   12:00  871.0    81   56.4     4    357.4     6.6    999.0   0.00  
 204   12:10  875.0    83   53.8     3     19.9     6.0    999.0   0.00  
 204   12:20  873.0    84   52.0     4     25.5     6.6    999.0   0.00  
 204   12:30  870.0    83   53.3     4      4.6     7.2    999.0   0.00  
 204   12:40  869.0    82   53.2     5      0.5     9.0    999.0   0.00  
 204   12:50  865.0    82   53.3     4    357.6     7.2    999.0   0.00  
 204   13:00  860.0    82   51.8     5    354.4     7.8    999.0   0.00  
 204   13:10  853.0    84   50.5     4     18.1     6.6    999.0   0.00  
 204   13:20  843.0    84   51.3     5     32.5     7.2    999.0   0.00  
 204   13:30  832.0    81   54.6     5      8.3     8.4    999.0   0.00  
 204   13:40  821.0    81   55.7     5     14.7     7.8    999.0   0.00  
 204   13:50  809.0    81   54.8     4    345.4     6.0    999.0   0.00  
 204   14:00  793.0    85   47.0     4    280.0     9.6    999.0   0.00  
 204   14:10  778.0    86   43.5     5    276.9     9.6    999.0   0.00  
 204   14:20  762.0    87   42.0     5    275.0    10.8    999.0   0.00  
 204   14:30  745.0    86   39.1     8    253.9    13.1    999.0   0.00  
 204   14:40  725.0    83   40.0    10    244.1    13.1    999.0   0.00  
 204   14:50  705.0    82   42.0    11    246.2    14.9    999.0   0.00  
 204   15:00  683.0    82   44.9    11    239.6    14.9    999.0   0.00  
 204   15:10  660.0    80   49.6    14    227.6    17.9    999.0   0.00  
 204   15:20  633.0    78   54.8    14    227.5    17.9    999.0   0.00  
 204   15:30  608.0    78   53.8    14    226.8    17.3    999.0   0.00  
 204   15:40  582.0    78   51.2    15    238.6    18.5    999.0   0.00  
 204   15:50  553.0    78   50.8    17    240.4    22.7    999.0   0.00  
 204   16:00  525.0    76   57.3    18    234.7    22.7    999.0   0.00  
 204   16:10  496.0    76   56.6    16    226.4    19.7    999.0   0.00  
 204   16:20  467.0    76   56.1    14    228.4    19.7    999.0   0.00  
 204   16:30  435.0    76   58.1    18    230.1    23.9    999.0   0.00  
 204   16:40  404.0    75   60.0    18    231.8    24.5    999.0   0.00  
 204   16:50  376.0    75   59.8    17    228.0    21.5    999.0   0.00  
 204   17:00  345.0    74   61.0    18    228.3    21.5    999.0   0.00  
 204   17:10  314.0    75   59.9    19    234.3    25.0    999.0   0.00  
 204   17:20  284.0    74   62.4    19    230.4    22.7    999.0   0.00  
 204   17:30  252.0    74   62.3    18    231.1    22.7    999.0   0.00  
 204   17:40  222.0    73   63.7    19    225.9    22.7    999.0   0.00  
 204   17:50  191.0    72   66.2    19    228.3    22.7    999.0   0.00  
 204   18:00  162.0    71   68.1    18    228.5    22.7    999.0   0.00  
 204   18:10  133.0    70   69.1    19    237.6    23.9    999.0   0.00  
 204   18:20  105.0    70   70.0    20    245.7    24.5    999.0   0.00  
 204   18:30   79.0    70   67.7    21    256.1    33.4    999.0   0.00  
 204   18:40   49.0    72   62.6    23    260.2    28.6    999.0   0.00  
 204   18:50   28.0    72   62.2    23    261.8    31.0    999.0   0.00  
 204   19:00   10.0    75   51.8    24    265.4    32.2    999.0   0.00  
 204   19:10    4.0    67   76.4    19    258.8    24.5    999.0   0.00  
 204   19:20    0.0    65   80.4    19    259.7    26.8    999.0   0.00  
 204   19:30    0.0    66   76.8    20    261.7    25.6    999.0   0.00  
 204   19:40    0.0    68   70.4    18    266.6    23.3    999.0   0.00  
 204   19:50    0.0    71   62.7    16    269.1    22.1    999.0   0.00  
 204   20:00    0.0    66   80.0    15    258.2    19.1    999.0   0.00  
 204   20:10    0.0    64   85.0    12    243.3    18.5    999.0   0.00  
 204   20:20    0.0    68   73.5    12    245.4    15.5    999.0   0.00  
 204   20:30    0.0    67   75.9    11    242.2    14.3    999.0   0.00  
 204   20:40    0.0    64   84.8    12    244.5    16.1    999.0   0.00  
 204   20:50    0.0    65   79.9    11    238.2    14.3    999.0   0.00  
 204   21:00    0.0    71   61.7    10    245.1    13.7    999.0   0.00  
 204   21:10    0.0    73   55.2    10    249.2    11.9    999.0   0.00  
 204   21:20    0.0    75   50.8     9    256.1    12.5    999.0   0.00  
 204   21:30    0.0    76   45.8     8    263.4    11.3    999.0   0.00  
 204   21:40    0.0    76   45.8     8    251.6    10.2    999.0   0.00  
 204   21:50    0.0    77   44.0     7    256.0     9.0    999.0   0.00  
 204   22:00    0.0    77   43.0     6    247.4     7.8    999.0   0.00  
 204   22:10    0.0    78   39.8     7    246.7     9.0    999.0   0.00  
 204   22:20    0.0    78   40.2     6    245.4     7.8    999.0   0.00  
 204   22:30    0.0    78   39.3     5    248.4     6.6    999.0   0.00  

Return to Whitleys Peak graphs page.


Western Regional Climate Center,wrcc@dri.edu